Flight Track Log - Related Links

Times and Time Zones

All times are in EST time to prevent confusion due to time zone crossing. See the UAL5862 flight status page for this flight to view local times or setup timezone preferences in your user account.

Time Position Orientation Groundspeed Altitude Reporting Facility
EST Latitude Longitude Course Direction KTS MPH feet Rate Location/Type
Mon 08:13:32 PM 42.7803 -84.6200 286° West 169 194 2,500  Level Cleveland Center
Mon 08:14:06 PM 42.7797 -84.6486 268° West 185 213 3,300 2,563 Climbing Chicago Center
Mon 08:15:08 PM 42.7811 -84.7453 271° West 225 259 6,600 3,290 Climbing Chicago Center
Mon 08:16:00 PM 42.6990 -84.9400 270° West  Level Estimated
Mon 08:16:10 PM 42.7806 -84.8342 270° West 235 270 10,100  Level Chicago Center
Mon 08:17:00 PM 42.7174 -85.0290 286° West  Level FlightAware Approximate
Mon 08:17:11 PM 42.7822 -84.9264 271° West 240 276 11,700  Level Chicago Center
Mon 08:18:00 PM 42.7358 -85.1181 286° West  Level FlightAware Approximate
Mon 08:18:13 PM 42.7833 -85.0411 271° West 296 341 12,900  Level Chicago Center
Mon 08:19:15 PM 42.7847 -85.1606 271° West 315 362 14,400 1,500 Climbing Chicago Center
Mon 08:20:17 PM 42.7853 -85.2836 270° West 323 372 16,000 1,548 Climbing Chicago Center
Mon 08:21:19 PM 42.7853 -85.4047 270° West 322 371 17,600 1,839 Climbing Chicago Center
Mon 08:22:21 PM 42.7783 -85.5414 266° West 304 350 19,800 1,161 Climbing Chicago Center
Mon 08:23:23 PM 42.7594 -85.6475 256° West 288 331 20,000 97 Climbing Chicago Center
Mon 08:24:25 PM 42.7406 -85.7544 257° West 290 334 20,000  Level Chicago Center
Mon 08:25:27 PM 42.7214 -85.8617 256° West 290 334 20,000  Level Chicago Center
Mon 08:26:29 PM 42.7017 -85.9714 256° West 295 339 20,000  Level Chicago Center
Mon 08:27:30 PM 42.6806 -86.0817 255° West 299 344 20,000  Level Chicago Center
Mon 08:28:32 PM 42.6603 -86.1919 256° West 300 345 20,000 -242 Level Chicago Center
Mon 08:29:34 PM 42.6406 -86.2994 256° West 297 342 19,500 -1,500 Descending Chicago Center
Mon 08:30:36 PM 42.6169 -86.4200 255° West 278 320 16,900 -2,274 Descending Chicago Center
Mon 08:31:38 PM 42.5994 -86.5200 257° West 271 312 14,800 -1,887 Descending Chicago Center
Mon 08:32:40 PM 42.5783 -86.6261 255° West 286 329 13,000 -1,742 Descending Chicago Center
Mon 08:33:42 PM 42.5594 -86.7317 256° West 289 333 11,200 -1,452 Descending Chicago Center
Mon 08:34:44 PM 42.5311 -86.8322 249° West 287 330 10,000 -919 Descending Chicago Center
Mon 08:35:46 PM 42.5067 -86.9275 251° West 270 311 9,300 -484 Descending Chicago Center
Mon 08:36:48 PM 42.4756 -87.0367 249° West 261 300 9,000 -97 Descending Chicago Center
Mon 08:37:50 PM 42.4503 -87.1267 249° West 257 296 9,100 49 Climbing Chicago Center
Mon 08:38:51 PM 42.4258 -87.2178 250° West 258 297 9,100  Level Chicago Center
Mon 08:39:53 PM 42.3894 -87.2992 239° Southwest 263 303 9,100 -484 Level Chicago Center
Mon 08:40:55 PM 42.3119 -87.3236 193° South 267 307 8,100 -968 Descending Chicago Center
Mon 08:41:57 PM 42.2397 -87.3317 185° South 262 302 7,100 -484 Descending Chicago Center
Mon 08:42:59 PM 42.1675 -87.3317 180° South 260 299 7,100 -48 Level Chicago Center
Mon 08:44:01 PM 42.0942 -87.3194 173° South 264 304 7,000  Descending Chicago Center
Mon 08:45:02 PM 42.0303 -87.3417 194° South 252 290 7,100  Climbing Chicago Center
Mon 08:46:04 PM 41.9808 -87.4292 233° Southwest 245 282 7,000 -145 Descending Chicago Center
Mon 08:47:06 PM 41.9828 -87.5164 272° West 237 273 6,800 -774 Descending Chicago Center
Mon 08:48:08 PM 41.9831 -87.6064 270° West 242 278 5,400 -1,458 Descending Chicago Center
Mon 08:48:53 PM 41.9833 -87.6667 270° West 232 267 4,200 -1,314 Descending Chicago TRACON
Mon 08:49:53 PM 41.9833 -87.7500 270° West 165 190 3,100 -1,000 Descending Chicago TRACON
Mon 08:50:47 PM 41.9833 -87.8000 270° West 135 155 2,300 -737 Descending Chicago TRACON
Mon 08:51:47 PM 41.9833 -87.8333 270° West 103 119 1,700 -650 Descending Chicago TRACON
Mon 08:52:47 PM 41.9833 -87.8667 270° West 114 131 1,000 -700 Descending Chicago TRACON

Login

Don't have an account? Register now (free) for customized features, flight alerts, and more!